Time;durP1;ratioP1;P1;durP2;ratioP2;P2;SDS_P1;SDS_P2;PMS_P1;PMS_P2;Temp;Humidity;BMP_temperature;BMP_pressure;BME280_temperature;BME280_humidity;BME280_pressure;Samples;Min_cycle;Max_cycle;Signal;HPM_P1;HPM_P2
2023/02/03 00:00:27;;;;;;;6.30;4.13;;;4.40;99.90;;;;;;5019299;28;20032;-56
2023/02/03 00:02:53;;;;;;;4.63;3.35;;;4.50;99.90;;;;;;5019884;28;20499;-58
2023/02/03 00:05:19;;;;;;;5.07;4.05;;;4.50;99.90;;;;;;5016947;28;20030;-58
2023/02/03 00:07:45;;;;;;;5.38;4.13;;;4.60;99.90;;;;;;5016497;28;20049;-58
2023/02/03 00:10:11;;;;;;;5.57;4.15;;;4.60;99.90;;;;;;5017622;28;20722;-56
2023/02/03 00:12:36;;;;;;;4.82;4.05;;;4.70;99.90;;;;;;5019259;28;20063;-59
2023/02/03 00:15:02;;;;;;;4.75;4.07;;;4.70;99.90;;;;;;5020023;28;20101;-60
2023/02/03 00:17:28;;;;;;;5.65;4.07;;;4.70;99.90;;;;;;5019697;28;20036;-58
2023/02/03 00:19:53;;;;;;;5.40;4.80;;;4.80;99.90;;;;;;5018119;28;20033;-60
2023/02/03 00:22:19;;;;;;;5.95;4.80;;;4.90;99.90;;;;;;5017705;28;20128;-59
2023/02/03 00:24:44;;;;;;;7.13;5.82;;;4.90;99.90;;;;;;5019496;28;20030;-59
2023/02/03 00:27:10;;;;;;;8.25;5.68;;;4.90;99.90;;;;;;5019547;28;20017;-58
2023/02/03 00:29:35;;;;;;;7.65;6.07;;;4.90;99.90;;;;;;5017676;28;20034;-58
2023/02/03 00:32:01;;;;;;;6.63;5.47;;;5.00;99.90;;;;;;5019289;28;20032;-61
2023/02/03 00:34:28;;;;;;;6.53;5.25;;;5.00;99.90;;;;;;5018468;28;20068;-58
2023/02/03 00:36:54;;;;;;;9.57;6.25;;;5.10;99.90;;;;;;5017989;28;20056;-60
2023/02/03 00:39:20;;;;;;;9.05;6.25;;;5.10;99.90;;;;;;5017483;28;20033;-57
2023/02/03 00:41:45;;;;;;;6.75;5.40;;;5.10;99.90;;;;;;5019438;28;20507;-57
2023/02/03 00:44:11;;;;;;;8.80;5.93;;;5.20;99.90;;;;;;5018421;28;20021;-60
2023/02/03 00:46:37;;;;;;;8.68;6.50;;;5.20;99.90;;;;;;5019162;28;20735;-60
2023/02/03 00:49:03;;;;;;;8.27;6.35;;;5.30;99.90;;;;;;5018825;28;20395;-58
2023/02/03 00:51:29;;;;;;;10.63;7.05;;;5.40;99.90;;;;;;5019439;28;20035;-59
2023/02/03 00:53:54;;;;;;;9.68;7.03;;;5.40;99.90;;;;;;5019190;28;20491;-59
2023/02/03 00:56:20;;;;;;;13.93;7.53;;;5.60;99.90;;;;;;5018274;28;20892;-59
2023/02/03 00:58:45;;;;;;;13.13;7.70;;;5.70;99.90;;;;;;5018023;28;20072;-57
2023/02/03 01:01:11;;;;;;;11.38;8.00;;;5.80;99.90;;;;;;5017452;28;20092;-58
2023/02/03 01:03:37;;;;;;;14.90;7.82;;;5.80;99.90;;;;;;5017851;28;20069;-58
2023/02/03 01:06:08;;;;;;;14.65;8.82;;;5.90;99.90;;;;;;5018522;28;20391;-58
2023/02/03 01:08:34;;;;;;;11.43;7.88;;;6.00;99.90;;;;;;5017855;28;20508;-58
2023/02/03 01:11:05;;;;;;;15.68;8.10;;;6.00;99.90;;;;;;5019148;28;20025;-56
2023/02/03 01:13:31;;;;;;;12.80;7.40;;;6.10;99.90;;;;;;5018253;28;20049;-56
2023/02/03 01:16:02;;;;;;;11.32;8.10;;;6.20;99.90;;;;;;5015679;28;20483;-58
2023/02/03 01:18:28;;;;;;;14.02;7.68;;;6.30;99.90;;;;;;5015585;28;20113;-58
2023/02/03 01:20:53;;;;;;;15.43;8.10;;;6.30;99.90;;;;;;5016477;28;20045;-58
2023/02/03 01:23:19;;;;;;;15.98;8.65;;;6.40;99.90;;;;;;5015497;28;20034;-57
2023/02/03 01:25:45;;;;;;;16.17;8.52;;;6.30;99.90;;;;;;5017205;28;20392;-58
2023/02/03 01:28:10;;;;;;;15.95;7.60;;;6.40;99.90;;;;;;5015528;28;20026;-58
2023/02/03 01:30:36;;;;;;;12.23;8.18;;;6.40;99.90;;;;;;5017284;28;20027;-58
2023/02/03 01:33:01;;;;;;;13.27;7.63;;;6.40;99.90;;;;;;5018738;28;20061;-58
2023/02/03 01:35:27;;;;;;;19.88;7.53;;;6.50;99.90;;;;;;5017065;28;20116;-58
2023/02/03 01:37:52;;;;;;;16.75;7.03;;;6.50;99.90;;;;;;5017253;28;20530;-59
2023/02/03 01:40:18;;;;;;;17.15;7.25;;;6.50;99.90;;;;;;5018174;28;20041;-59
2023/02/03 01:42:43;;;;;;;12.25;6.85;;;6.60;99.90;;;;;;5016812;28;20419;-57
2023/02/03 01:45:10;;;;;;;17.27;6.53;;;6.60;99.90;;;;;;5017492;28;20022;-57
2023/02/03 01:47:53;;;;;;;14.18;6.80;;;6.60;99.90;;;;;;5017597;28;20026;-58
2023/02/03 01:50:34;;;;;;;20.52;7.47;;;6.60;99.90;;;;;;5018999;28;20013;-59
2023/02/03 01:53:06;;;;;;;16.58;7.05;;;6.60;99.90;;;;;;5017887;28;20037;-57
2023/02/03 01:55:37;;;;;;;13.55;7.28;;;6.60;99.90;;;;;;5018165;28;20026;-58
2023/02/03 01:58:19;;;;;;;10.95;5.88;;;6.60;99.90;;;;;;5016343;28;20330;-58
2023/02/03 02:00:48;;;;;;;12.90;5.70;;;6.60;99.90;;;;;;5015610;28;20042;-59
2023/02/03 02:03:14;;;;;;;13.85;5.30;;;6.60;99.90;;;;;;5014713;28;20080;-58
2023/02/03 02:05:48;;;;;;;11.18;5.70;;;6.70;99.90;;;;;;5016977;28;20025;-58
2023/02/03 02:08:17;;;;;;;9.15;5.57;;;6.70;99.90;;;;;;5018051;28;20064;-58
2023/02/03 02:10:43;;;;;;;11.13;5.22;;;6.60;99.90;;;;;;5016812;28;20029;-58
2023/02/03 02:13:10;;;;;;;11.30;5.18;;;6.70;99.90;;;;;;5018056;28;20037;-57
2023/02/03 02:16:07;;;;;;;12.45;4.57;;;6.70;99.90;;;;;;5017139;28;20102;-58
2023/02/03 02:18:41;;;;;;;8.02;4.47;;;6.70;99.90;;;;;;5018298;28;20096;-57
2023/02/03 02:21:32;;;;;;;9.60;4.43;;;6.70;99.90;;;;;;5014291;28;20037;-56
2023/02/03 02:24:18;;;;;;;7.90;3.95;;;6.70;99.90;;;;;;5012226;28;20025;-59
2023/02/03 02:27:02;;;;;;;14.35;4.72;;;6.70;99.90;;;;;;5017872;28;20043;-57
2023/02/03 02:29:39;;;;;;;12.10;4.32;;;6.70;99.90;;;;;;5016932;28;20041;-58
2023/02/03 02:32:16;;;;;;;10.63;4.10;;;6.70;99.90;;;;;;5017140;28;20064;-58
2023/02/03 02:35:02;;;;;;;9.23;3.83;;;6.70;99.90;;;;;;5018085;28;20033;-58
2023/02/03 02:37:35;;;;;;;8.95;4.45;;;6.60;99.90;;;;;;5019152;28;20540;-55
2023/02/03 02:40:26;;;;;;;8.52;4.22;;;6.70;99.90;;;;;;5020785;28;20034;-56
2023/02/03 02:43:28;;;;;;;10.88;3.72;;;6.70;99.90;;;;;;5021225;28;20120;-57
2023/02/03 02:46:01;;;;;;;10.02;4.28;;;6.70;99.90;;;;;;5020166;28;20440;-58
2023/02/03 02:48:32;;;;;;;6.50;3.78;;;6.70;99.90;;;;;;5020421;28;20097;-56
2023/02/03 02:51:02;;;;;;;11.30;4.28;;;6.70;99.90;;;;;;5017273;28;20029;-58
2023/02/03 02:53:32;;;;;;;6.18;4.20;;;6.70;99.90;;;;;;5020331;28;20022;-56
2023/02/03 02:55:59;;;;;;;8.73;3.50;;;6.70;99.90;;;;;;5020604;28;20022;-57
2023/02/03 02:58:26;;;;;;;9.93;4.13;;;6.70;99.90;;;;;;5020241;28;20030;-56
2023/02/03 03:00:53;;;;;;;9.68;4.00;;;6.80;99.90;;;;;;5020353;28;20075;-57
2023/02/03 03:03:21;;;;;;;4.93;3.55;;;6.70;99.90;;;;;;5019793;28;20022;-57
2023/02/03 03:05:55;;;;;;;8.02;3.60;;;6.80;99.90;;;;;;5018780;28;20072;-57
2023/02/03 03:08:31;;;;;;;10.20;3.95;;;6.70;99.90;;;;;;5019400;28;20056;-57
2023/02/03 03:10:58;;;;;;;9.18;3.95;;;6.70;99.90;;;;;;5021168;28;20052;-57
2023/02/03 03:13:29;;;;;;;10.05;4.00;;;6.70;99.90;;;;;;5020789;28;20084;-56
2023/02/03 03:15:57;;;;;;;9.05;3.80;;;6.80;99.90;;;;;;5020880;28;20033;-56
2023/02/03 03:18:37;;;;;;;6.97;3.80;;;6.80;99.90;;;;;;5020276;28;20029;-56
2023/02/03 03:21:05;;;;;;;4.47;3.08;;;6.80;99.90;;;;;;5021376;28;20032;-58
2023/02/03 03:23:38;;;;;;;9.45;2.95;;;6.80;99.90;;;;;;5017823;28;20057;-56
2023/02/03 03:26:10;;;;;;;6.45;3.13;;;6.80;99.90;;;;;;5019755;28;20076;-56
2023/02/03 03:29:09;;;;;;;6.78;2.92;;;6.80;99.90;;;;;;5020262;28;20051;-58
2023/02/03 03:31:35;;;;;;;6.75;3.22;;;6.80;99.90;;;;;;5020008;28;20041;-58
2023/02/03 03:34:01;;;;;;;7.47;2.45;;;6.80;99.90;;;;;;5020053;28;20025;-57
2023/02/03 03:36:55;;;;;;;11.50;2.90;;;6.80;99.90;;;;;;5019749;28;20038;-57
2023/02/03 03:39:27;;;;;;;5.90;2.28;;;6.90;99.90;;;;;;5019628;28;20484;-57
2023/02/03 03:42:06;;;;;;;8.30;2.72;;;6.90;99.90;;;;;;5020327;28;20068;-58
2023/02/03 03:44:42;;;;;;;3.70;1.98;;;6.90;99.90;;;;;;5019211;28;20014;-58
2023/02/03 03:47:27;;;;;;;12.63;2.92;;;6.90;99.90;;;;;;5018619;28;20029;-58
2023/02/03 03:49:54;;;;;;;8.05;2.53;;;6.90;99.90;;;;;;5019234;28;20029;-58
2023/02/03 03:52:26;;;;;;;9.70;3.17;;;6.90;99.90;;;;;;5017423;28;20099;-57
2023/02/03 03:54:54;;;;;;;8.02;2.38;;;6.90;99.90;;;;;;5016029;28;20037;-57
2023/02/03 03:57:45;;;;;;;9.13;2.58;;;6.90;99.90;;;;;;5018616;28;20049;-56
2023/02/03 04:00:16;;;;;;;12.77;3.47;;;6.90;99.90;;;;;;5007966;28;20045;-58
2023/02/03 04:02:47;;;;;;;17.63;2.75;;;6.90;99.90;;;;;;5019090;28;20029;-59
2023/02/03 04:05:13;;;;;;;10.65;2.85;;;6.90;99.90;;;;;;5017763;28;20139;-58
2023/02/03 04:07:44;;;;;;;12.98;3.25;;;6.90;99.90;;;;;;5019301;28;20039;-58
2023/02/03 04:10:37;;;;;;;14.50;3.20;;;6.90;99.90;;;;;;5020051;28;20545;-56
2023/02/03 04:13:04;;;;;;;8.88;2.72;;;6.90;99.90;;;;;;5012753;28;20420;-57
2023/02/03 04:15:30;;;;;;;6.40;2.72;;;6.90;99.90;;;;;;5016936;28;20549;-57
2023/02/03 04:17:56;;;;;;;6.13;2.63;;;6.90;99.90;;;;;;5019773;28;20034;-58
2023/02/03 04:20:23;;;;;;;8.85;3.53;;;6.90;99.90;;;;;;5018226;28;20026;-56
2023/02/03 04:22:48;;;;;;;9.60;3.30;;;6.90;99.90;;;;;;5016806;28;20018;-58
2023/02/03 04:25:14;;;;;;;12.32;3.30;;;6.90;99.90;;;;;;5017354;28;20036;-57
2023/02/03 04:27:40;;;;;;;7.13;2.90;;;6.90;99.90;;;;;;5016804;28;20028;-54
2023/02/03 04:30:06;;;;;;;11.15;3.17;;;6.90;99.90;;;;;;5019718;28;20461;-57
2023/02/03 04:32:34;;;;;;;10.15;3.35;;;6.90;99.90;;;;;;5018031;28;20507;-58
2023/02/03 04:35:00;;;;;;;8.15;3.35;;;6.80;99.90;;;;;;5017957;28;20105;-60
2023/02/03 04:37:26;;;;;;;10.32;2.95;;;6.80;99.90;;;;;;5019718;28;20033;-58
2023/02/03 04:39:54;;;;;;;7.88;2.80;;;6.90;99.90;;;;;;5018422;28;20053;-56
2023/02/03 04:42:20;;;;;;;9.00;3.60;;;6.90;99.90;;;;;;5020002;28;20013;-60
2023/02/03 04:44:45;;;;;;;9.23;3.33;;;6.90;99.90;;;;;;5018742;28;20105;-60
2023/02/03 04:47:13;;;;;;;4.72;3.40;;;6.90;99.90;;;;;;5020293;28;20439;-59
2023/02/03 04:49:38;;;;;;;10.45;4.32;;;6.90;99.90;;;;;;5018967;28;20043;-58
2023/02/03 04:52:04;;;;;;;7.20;3.28;;;6.90;99.90;;;;;;5019003;28;20044;-60
2023/02/03 04:54:30;;;;;;;11.65;3.88;;;6.90;99.90;;;;;;5018529;28;20116;-62
2023/02/03 04:56:55;;;;;;;7.18;3.80;;;6.90;99.90;;;;;;5018279;28;20108;-59
2023/02/03 04:59:21;;;;;;;9.80;3.60;;;6.80;99.90;;;;;;5019096;28;20041;-59
2023/02/03 05:01:46;;;;;;;7.82;3.55;;;6.90;99.90;;;;;;5018972;28;20550;-59
2023/02/03 05:04:12;;;;;;;11.77;3.92;;;6.90;99.90;;;;;;5017976;28;20036;-57
2023/02/03 05:06:38;;;;;;;11.02;4.50;;;6.90;99.90;;;;;;5017659;28;20033;-58
2023/02/03 05:09:03;;;;;;;6.65;3.95;;;6.90;99.90;;;;;;5018761;28;20507;-57
2023/02/03 05:11:29;;;;;;;10.13;4.35;;;6.90;99.90;;;;;;5016806;28;20380;-56
2023/02/03 05:13:55;;;;;;;14.18;4.72;;;6.90;99.90;;;;;;5016414;28;20037;-56
2023/02/03 05:16:20;;;;;;;11.82;4.47;;;6.90;99.90;;;;;;5016302;28;20033;-57
2023/02/03 05:18:46;;;;;;;10.88;4.25;;;6.90;99.90;;;;;;5019021;28;20041;-60
2023/02/03 05:21:12;;;;;;;13.68;4.20;;;6.90;99.90;;;;;;5015451;28;20073;-60
2023/02/03 05:23:37;;;;;;;5.68;3.88;;;6.90;99.90;;;;;;5018054;28;20033;-59
2023/02/03 05:26:03;;;;;;;9.07;3.75;;;6.90;99.90;;;;;;5019273;28;20026;-58
2023/02/03 05:28:29;;;;;;;8.52;4.32;;;6.90;99.90;;;;;;5017462;28;20038;-58
2023/02/03 05:30:57;;;;;;;10.65;3.63;;;6.90;99.90;;;;;;5014694;28;20554;-60
2023/02/03 05:33:23;;;;;;;9.27;4.22;;;6.90;99.90;;;;;;5017348;28;20598;-60
2023/02/03 05:35:48;;;;;;;6.72;4.07;;;6.90;99.90;;;;;;5017017;28;20105;-58
2023/02/03 05:38:14;;;;;;;6.22;4.07;;;6.90;99.90;;;;;;5018263;28;20065;-60
2023/02/03 05:43:24;;;;;;;5.70;3.58;;;6.90;99.90;;;;;;5018155;28;20071;-60
2023/02/03 05:45:49;;;;;;;7.97;3.28;;;6.90;99.90;;;;;;5018617;28;20033;-60
2023/02/03 05:48:15;;;;;;;5.68;3.65;;;6.90;99.90;;;;;;5017607;28;20033;-61
2023/02/03 05:50:41;;;;;;;5.57;3.15;;;6.90;99.90;;;;;;5017143;28;20578;-60
2023/02/03 05:53:07;;;;;;;5.78;3.17;;;6.90;99.90;;;;;;5016733;28;20109;-60
2023/02/03 05:55:33;;;;;;;6.50;2.78;;;6.90;99.90;;;;;;5017338;28;20049;-60
2023/02/03 05:57:59;;;;;;;7.65;3.38;;;6.90;99.90;;;;;;5017956;28;20056;-61
2023/02/03 06:00:25;;;;;;;9.57;2.58;;;6.90;99.90;;;;;;5017286;28;20395;-57
2023/02/03 06:02:52;;;;;;;6.05;2.53;;;6.90;99.90;;;;;;5016686;28;20031;-61
2023/02/03 06:05:19;;;;;;;9.98;3.25;;;6.90;99.90;;;;;;5016405;28;20033;-61
2023/02/03 06:07:44;;;;;;;7.47;2.70;;;6.90;99.90;;;;;;5016531;28;20030;-61
2023/02/03 06:10:10;;;;;;;5.93;2.65;;;7.00;99.90;;;;;;5017280;28;20041;-61
2023/02/03 06:12:37;;;;;;;7.07;3.35;;;6.90;99.90;;;;;;5020642;28;20034;-58
2023/02/03 06:15:03;;;;;;;8.82;3.17;;;7.00;99.90;;;;;;5021489;28;20030;-60
2023/02/03 06:17:28;;;;;;;9.40;3.10;;;7.00;99.90;;;;;;5021010;28;20057;-60
2023/02/03 06:19:54;;;;;;;9.02;2.72;;;7.00;99.90;;;;;;5020515;28;20038;-58
2023/02/03 06:22:19;;;;;;;11.18;2.63;;;7.00;99.90;;;;;;5020761;28;20096;-59
2023/02/03 06:24:46;;;;;;;8.98;3.17;;;7.00;99.90;;;;;;5020445;28;20049;-57
2023/02/03 06:27:15;;;;;;;5.03;2.53;;;7.00;99.90;;;;;;5021684;28;20018;-59
2023/02/03 06:29:41;;;;;;;7.45;3.25;;;7.00;99.90;;;;;;5020105;28;20034;-59
2023/02/03 06:32:07;;;;;;;9.82;3.22;;;7.00;99.90;;;;;;5019407;28;20407;-57
2023/02/03 06:34:33;;;;;;;5.90;2.83;;;7.00;99.90;;;;;;5021683;28;20041;-59
2023/02/03 06:36:59;;;;;;;7.50;2.63;;;7.00;99.90;;;;;;5020950;28;20025;-58
2023/02/03 06:39:25;;;;;;;7.03;2.60;;;7.10;99.90;;;;;;5019863;28;20048;-59
2023/02/03 06:41:51;;;;;;;6.68;3.10;;;7.10;99.90;;;;;;5020422;28;20026;-58
2023/02/03 06:44:17;;;;;;;11.05;2.80;;;7.10;99.90;;;;;;5018732;28;20025;-59
2023/02/03 06:46:43;;;;;;;8.38;3.42;;;7.10;99.90;;;;;;5018832;28;20032;-56
2023/02/03 06:49:09;;;;;;;6.50;2.90;;;7.20;99.90;;;;;;5020314;28;20033;-58
2023/02/03 06:51:35;;;;;;;8.75;3.00;;;7.20;99.90;;;;;;5019570;28;20144;-57
2023/02/03 06:54:02;;;;;;;15.23;3.67;;;7.20;99.90;;;;;;5018655;28;20083;-58
2023/02/03 06:56:28;;;;;;;5.88;2.83;;;7.20;99.90;;;;;;5019672;28;20057;-58
2023/02/03 06:58:54;;;;;;;14.23;4.78;;;7.20;99.90;;;;;;5019505;28;20049;-58
2023/02/03 07:01:19;;;;;;;10.93;3.55;;;7.30;99.90;;;;;;5019334;28;20095;-57
2023/02/03 07:03:45;;;;;;;19.75;4.22;;;7.30;99.90;;;;;;5020285;28;20547;-58
2023/02/03 07:06:12;;;;;;;18.48;4.30;;;7.30;99.90;;;;;;5021515;28;20022;-59
2023/02/03 07:08:37;;;;;;;17.27;3.85;;;7.40;99.90;;;;;;5020184;28;20133;-55
2023/02/03 07:11:03;;;;;;;16.05;3.75;;;7.40;99.90;;;;;;5020542;28;20112;-57
2023/02/03 07:13:29;;;;;;;11.27;4.10;;;7.40;99.90;;;;;;5020546;28;20108;-59
2023/02/03 07:15:54;;;;;;;11.02;3.55;;;7.40;99.90;;;;;;5017942;28;20034;-60
2023/02/03 07:18:23;;;;;;;9.60;3.42;;;7.40;99.90;;;;;;5020518;28;20488;-59
2023/02/03 07:20:50;;;;;;;10.05;3.47;;;7.40;99.90;;;;;;5020030;28;20075;-59
2023/02/03 07:23:16;;;;;;;13.57;3.83;;;7.40;99.90;;;;;;5020659;28;20017;-59
2023/02/03 07:25:41;;;;;;;10.82;2.97;;;7.40;99.90;;;;;;5020885;28;20029;-59
2023/02/03 07:28:07;;;;;;;8.77;2.95;;;7.40;99.90;;;;;;5017157;28;20025;-59
2023/02/03 07:30:32;;;;;;;8.75;3.25;;;7.40;99.90;;;;;;5018136;28;20029;-59
2023/02/03 07:32:58;;;;;;;11.18;3.50;;;7.50;99.90;;;;;;5020928;28;20026;-58
2023/02/03 07:35:24;;;;;;;11.70;3.00;;;7.50;99.90;;;;;;5019690;28;20407;-60
2023/02/03 07:37:50;;;;;;;9.93;3.17;;;7.50;99.90;;;;;;5019030;28;20014;-60
2023/02/03 07:40:16;;;;;;;8.10;2.58;;;7.50;99.90;;;;;;5019326;28;20045;-60
2023/02/03 07:42:43;;;;;;;15.02;3.95;;;7.50;99.90;;;;;;5019344;28;20599;-60
2023/02/03 07:45:10;;;;;;;11.45;3.25;;;7.60;99.90;;;;;;5018590;28;20492;-58
2023/02/03 07:47:36;;;;;;;11.10;2.85;;;7.60;99.90;;;;;;5018313;28;20032;-60
2023/02/03 07:50:02;;;;;;;14.95;3.63;;;7.60;99.90;;;;;;5019261;28;20402;-60
2023/02/03 07:52:28;;;;;;;12.07;3.75;;;7.60;99.90;;;;;;5019590;28;20030;-60
2023/02/03 07:54:53;;;;;;;14.25;3.72;;;7.60;99.90;;;;;;5020897;28;20043;-60
2023/02/03 07:57:19;;;;;;;12.65;3.85;;;7.60;99.90;;;;;;5018574;28;20710;-58
2023/02/03 07:59:44;;;;;;;21.30;3.72;;;7.60;99.90;;;;;;5019570;28;20960;-60
2023/02/03 08:02:13;;;;;;;10.30;2.67;;;7.50;99.90;;;;;;5017872;28;20044;-59
2023/02/03 08:04:38;;;;;;;11.77;2.65;;;7.50;99.90;;;;;;5020396;28;20018;-59
2023/02/03 08:07:04;;;;;;;11.23;3.67;;;7.40;99.90;;;;;;5019818;28;20033;-57
2023/02/03 08:09:29;;;;;;;8.63;1.88;;;7.20;99.90;;;;;;5019562;28;20100;-60
2023/02/03 08:11:55;;;;;;;4.78;1.63;;;7.00;99.90;;;;;;5018023;28;20586;-59
2023/02/03 08:14:20;;;;;;;12.02;2.40;;;7.00;99.90;;;;;;5017009;28;20083;-60
2023/02/03 08:16:46;;;;;;;7.55;1.85;;;7.00;99.90;;;;;;5017810;28;20033;-59
2023/02/03 08:19:11;;;;;;;9.95;2.90;;;6.90;99.90;;;;;;5019059;28;20026;-60
2023/02/03 08:21:37;;;;;;;16.80;3.72;;;7.00;99.90;;;;;;5018904;28;20030;-59
2023/02/03 08:24:03;;;;;;;21.52;4.78;;;7.00;99.90;;;;;;5018957;28;20097;-60
2023/02/03 08:26:29;;;;;;;17.83;4.30;;;7.00;99.90;;;;;;5019655;28;20099;-60
2023/02/03 08:28:54;;;;;;;16.77;4.30;;;7.10;99.90;;;;;;5018813;28;20037;-60
2023/02/03 08:31:20;;;;;;;14.88;4.38;;;7.10;99.90;;;;;;5018999;28;20033;-58
2023/02/03 08:33:46;;;;;;;20.73;4.45;;;7.10;99.90;;;;;;5018051;28;20400;-60
2023/02/03 08:36:11;;;;;;;25.73;5.18;;;7.20;99.90;;;;;;5019005;28;20029;-60
2023/02/03 08:38:38;;;;;;;18.95;4.63;;;7.20;99.90;;;;;;5018522;28;20032;-59
2023/02/03 08:41:12;;;;;;;23.65;4.82;;;7.20;99.90;;;;;;5017481;28;20046;-59
2023/02/03 08:43:38;;;;;;;23.42;5.78;;;7.20;99.90;;;;;;5019025;28;20021;-60
2023/02/03 08:46:05;;;;;;;24.35;5.88;;;7.20;99.90;;;;;;5019381;28;20104;-60
2023/02/03 08:48:31;;;;;;;26.67;5.82;;;7.20;99.90;;;;;;5017586;28;20102;-58
2023/02/03 08:50:57;;;;;;;30.13;6.10;;;7.20;99.90;;;;;;5018873;28;20515;-60
2023/02/03 08:53:22;;;;;;;27.83;5.75;;;7.20;99.90;;;;;;5018617;28;20029;-60
2023/02/03 08:55:48;;;;;;;24.80;4.75;;;7.20;99.90;;;;;;5018723;28;20026;-61
2023/02/03 08:58:13;;;;;;;22.45;5.38;;;7.20;99.90;;;;;;5018045;28;20395;-60
2023/02/03 09:00:39;;;;;;;27.08;6.25;;;7.20;99.90;;;;;;5015930;28;20517;-59
2023/02/03 09:03:04;;;;;;;34.35;5.97;;;7.20;99.90;;;;;;5018801;28;20567;-60
2023/02/03 09:05:31;;;;;;;26.35;6.18;;;7.20;99.90;;;;;;5016622;28;20546;-61
2023/02/03 09:07:56;;;;;;;22.85;5.20;;;7.20;99.90;;;;;;5018494;28;20071;-60
2023/02/03 09:10:22;;;;;;;30.95;5.22;;;7.20;99.90;;;;;;5018740;28;20113;-60
2023/02/03 09:12:48;;;;;;;26.23;5.07;;;7.20;99.90;;;;;;5017854;28;20520;-60
2023/02/03 09:15:13;;;;;;;30.45;5.47;;;7.20;99.90;;;;;;5015460;28;20559;-58
2023/02/03 09:17:39;;;;;;;24.77;4.85;;;7.20;99.90;;;;;;5018248;28;20025;-59
2023/02/03 09:20:05;;;;;;;31.15;5.03;;;7.20;99.90;;;;;;5018578;28;20061;-59
2023/02/03 09:22:30;;;;;;;33.22;5.35;;;7.20;99.90;;;;;;5017096;28;20037;-60
2023/02/03 09:24:56;;;;;;;25.02;6.43;;;7.20;99.90;;;;;;5018031;28;20022;-59
2023/02/03 09:27:22;;;;;;;28.80;5.00;;;7.20;99.90;;;;;;5016677;28;20026;-57
2023/02/03 09:29:47;;;;;;;36.10;6.78;;;7.10;99.90;;;;;;5018280;28;20487;-59
2023/02/03 09:32:13;;;;;;;31.65;6.25;;;7.10;99.90;;;;;;5019263;28;20018;-60
2023/02/03 09:34:40;;;;;;;26.88;7.22;;;7.10;99.90;;;;;;5017542;28;20098;-59
2023/02/03 09:37:06;;;;;;;25.75;7.10;;;7.10;99.90;;;;;;5016671;28;20083;-59
2023/02/03 09:39:31;;;;;;;30.73;6.15;;;7.10;99.90;;;;;;5013319;28;20037;-60
2023/02/03 09:42:00;;;;;;;34.65;8.20;;;7.20;99.90;;;;;;5018379;28;20096;-59
2023/02/03 09:44:49;;;;;;;26.05;7.28;;;7.20;99.90;;;;;;5018936;28;20026;-59
2023/02/03 09:47:21;;;;;;;32.28;6.97;;;7.20;99.90;;;;;;5019819;28;20117;-59
2023/02/03 09:49:50;;;;;;;32.40;7.25;;;7.20;99.90;;;;;;5021799;28;20053;-60
2023/02/03 09:52:24;;;;;;;31.02;6.82;;;7.20;99.90;;;;;;5021822;28;20068;-59
2023/02/03 09:55:22;;;;;;;29.92;7.70;;;7.20;99.90;;;;;;5021636;28;20057;-54
2023/02/03 09:57:58;;;;;;;30.02;6.45;;;7.30;99.90;;;;;;5021788;28;20434;-58
2023/02/03 10:00:44;;;;;;;36.03;8.77;;;7.30;99.90;;;;;;5021686;28;20057;-59
2023/02/03 10:03:35;;;;;;;36.17;6.90;;;7.30;99.90;;;;;;5022369;28;20015;-60
2023/02/03 10:06:18;;;;;;;42.45;9.38;;;7.30;99.90;;;;;;5020461;28;20483;-59
2023/02/03 10:09:10;;;;;;;31.35;8.38;;;7.30;99.90;;;;;;5020719;28;20030;-59
2023/02/03 10:11:52;;;;;;;42.08;9.32;;;7.40;99.90;;;;;;5019937;28;20034;-59
2023/02/03 10:14:17;;;;;;;39.63;8.45;;;7.40;99.90;;;;;;5020926;28;20021;-58
2023/02/03 10:17:05;;;;;;;39.20;8.77;;;7.40;99.90;;;;;;5022024;28;20037;-59
2023/02/03 10:19:53;;;;;;;38.42;8.07;;;7.40;99.90;;;;;;5020240;28;20029;-56
2023/02/03 10:22:24;;;;;;;31.23;8.10;;;7.40;99.90;;;;;;5022066;28;20029;-58
2023/02/03 10:24:59;;;;;;;37.65;7.95;;;7.40;99.90;;;;;;5021989;28;20236;-56
2023/02/03 10:27:26;;;;;;;34.03;8.93;;;7.40;99.90;;;;;;5020381;28;20160;-58
2023/02/03 10:30:15;;;;;;;40.42;8.52;;;7.40;99.90;;;;;;5019879;28;20025;-59
2023/02/03 10:32:41;;;;;;;32.13;7.50;;;7.40;99.90;;;;;;5010059;28;20033;-58
2023/02/03 10:35:11;;;;;;;47.03;8.57;;;7.50;99.90;;;;;;5021648;28;20672;-59
2023/02/03 10:37:47;;;;;;;43.42;8.45;;;7.50;99.90;;;;;;5020111;28;20036;-57
2023/02/03 10:40:14;;;;;;;32.77;8.90;;;7.60;99.90;;;;;;5020328;28;20026;-59
2023/02/03 10:45:27;;;;;;;;;;;7.50;99.90;;;;;;5022119;28;20510;-58
2023/02/03 10:47:54;;;;;;;32.47;7.28;;;7.50;99.90;;;;;;5019371;28;19913;-58
2023/02/03 10:50:30;;;;;;;36.83;8.20;;;7.50;99.90;;;;;;5020238;28;20659;-57
2023/02/03 10:53:23;;;;;;;34.05;8.80;;;7.40;99.90;;;;;;5020490;28;20030;-58
2023/02/03 10:56:00;;;;;;;24.10;7.22;;;7.40;99.90;;;;;;5019786;28;20026;-57
2023/02/03 10:58:28;;;;;;;34.08;6.80;;;7.40;99.90;;;;;;5018828;28;20457;-57
2023/02/03 11:01:04;;;;;;;37.08;7.35;;;7.40;99.90;;;;;;5020138;28;20026;-57
2023/02/03 11:03:30;;;;;;;28.92;6.43;;;7.40;99.90;;;;;;5019153;28;20028;-58
2023/02/03 11:06:11;;;;;;;34.05;6.95;;;7.40;99.90;;;;;;5019127;28;20411;-57
2023/02/03 11:08:40;;;;;;;31.75;7.60;;;7.40;99.90;;;;;;5019788;28;20491;-57
2023/02/03 11:11:08;;;;;;;28.88;7.45;;;7.40;99.90;;;;;;5019372;28;20391;-59
2023/02/03 11:13:34;;;;;;;37.30;7.43;;;7.40;99.90;;;;;;5017454;28;20030;-58
2023/02/03 11:16:14;;;;;;;34.40;8.15;;;7.50;99.90;;;;;;5018243;28;20032;-59
2023/02/03 11:19:04;;;;;;;33.13;7.95;;;7.50;99.90;;;;;;5019159;28;20030;-60
2023/02/03 11:21:36;;;;;;;29.23;7.85;;;7.60;99.90;;;;;;5020461;28;20478;-59
2023/02/03 11:24:10;;;;;;;25.30;7.18;;;7.70;99.90;;;;;;5018925;28;20014;-57
2023/02/03 11:26:41;;;;;;;24.10;6.32;;;7.70;99.90;;;;;;5019163;28;20025;-56
2023/02/03 11:29:22;;;;;;;24.60;6.97;;;7.80;99.90;;;;;;5020356;28;20080;-57
2023/02/03 11:31:50;;;;;;;31.50;6.18;;;7.80;99.90;;;;;;5020473;28;20025;-59
2023/02/03 11:34:22;;;;;;;24.17;5.00;;;7.80;99.90;;;;;;5020118;28;20029;-59
2023/02/03 11:36:48;;;;;;;29.73;8.13;;;7.80;99.90;;;;;;5017077;28;20048;-58
2023/02/03 11:39:20;;;;;;;36.78;7.90;;;7.80;99.90;;;;;;5020227;28;20021;-59
2023/02/03 11:41:47;;;;;;;24.92;5.32;;;7.80;99.90;;;;;;5020482;28;20034;-59
2023/02/03 11:44:21;;;;;;;34.50;7.68;;;7.80;99.90;;;;;;5018083;28;20010;-55
2023/02/03 11:46:56;;;;;;;30.58;6.10;;;7.80;99.90;;;;;;5017796;28;20053;-58
2023/02/03 11:49:53;;;;;;;27.88;6.13;;;7.80;99.90;;;;;;5018066;28;20070;-59
2023/02/03 11:52:37;;;;;;;25.98;6.68;;;7.80;99.90;;;;;;5019726;28;20033;-58
2023/02/03 11:55:17;;;;;;;30.20;7.90;;;7.80;99.90;;;;;;5018541;28;20087;-59
2023/02/03 11:57:59;;;;;;;27.08;6.50;;;7.80;99.90;;;;;;5019768;28;20030;-58
2023/02/03 12:00:34;;;;;;;25.25;5.97;;;7.80;99.90;;;;;;5018433;28;20021;-58
2023/02/03 12:03:05;;;;;;;25.40;6.57;;;7.80;99.90;;;;;;5017631;28;20028;-56
2023/02/03 12:05:40;;;;;;;28.30;6.57;;;7.80;99.90;;;;;;5019100;28;20352;-58
2023/02/03 12:08:35;;;;;;;30.00;6.85;;;7.80;99.90;;;;;;5018902;28;20014;-58
2023/02/03 12:11:04;;;;;;;34.13;7.47;;;7.90;99.90;;;;;;5018294;28;20112;-57
2023/02/03 12:13:56;;;;;;;30.27;6.10;;;7.90;99.90;;;;;;5019299;28;20584;-59
2023/02/03 12:17:06;;;;;;;25.70;6.05;;;8.00;99.90;;;;;;5019824;28;20400;-59
2023/02/03 12:20:10;;;;;;;30.15;6.43;;;8.00;99.90;;;;;;5018468;28;20399;-55
2023/02/03 12:22:44;;;;;;;27.15;7.38;;;8.00;99.90;;;;;;5019278;28;20033;-57
2023/02/03 12:25:22;;;;;;;24.58;6.38;;;8.00;99.90;;;;;;5018553;28;20021;-60
2023/02/03 12:28:06;;;;;;;24.88;5.10;;;8.00;99.90;;;;;;5018501;28;20026;-58
2023/02/03 12:30:37;;;;;;;27.27;5.28;;;8.00;99.90;;;;;;5019730;28;20037;-56
2023/02/03 12:33:17;;;;;;;27.23;5.78;;;8.00;99.90;;;;;;5018462;28;20026;-60
2023/02/03 12:36:05;;;;;;;26.88;6.40;;;7.90;99.90;;;;;;5016389;28;20103;-59
2023/02/03 12:38:37;;;;;;;15.23;5.80;;;7.90;99.90;;;;;;5017903;28;20052;-57
2023/02/03 12:41:10;;;;;;;24.92;5.43;;;7.80;99.90;;;;;;5019113;28;20377;-57
2023/02/03 12:43:38;;;;;;;25.55;6.38;;;7.80;99.90;;;;;;5018357;28;20033;-59
2023/02/03 12:46:21;;;;;;;22.55;5.57;;;7.80;99.90;;;;;;5019308;28;20018;-55
2023/02/03 12:49:02;;;;;;;21.48;5.18;;;7.70;99.90;;;;;;5017788;28;20021;-61
2023/02/03 12:51:53;;;;;;;24.83;5.15;;;7.70;99.90;;;;;;5017728;28;20036;-59
2023/02/03 12:54:37;;;;;;;21.67;6.10;;;7.70;99.90;;;;;;5019120;28;20026;-57
2023/02/03 12:57:13;;;;;;;17.65;5.85;;;7.60;99.90;;;;;;5018328;28;20029;-59
2023/02/03 12:59:40;;;;;;;23.95;4.97;;;7.60;99.90;;;;;;5019367;28;20164;-61
2023/02/03 13:02:23;;;;;;;25.95;5.50;;;7.60;99.90;;;;;;5017264;28;20041;-60
2023/02/03 13:04:55;;;;;;;20.10;5.22;;;7.60;99.90;;;;;;5019333;28;20032;-60
2023/02/03 13:07:32;;;;;;;26.48;6.25;;;7.50;99.90;;;;;;5018138;28;20048;-61
2023/02/03 13:09:59;;;;;;;26.02;6.40;;;7.50;99.90;;;;;;5016940;28;20112;-59
2023/02/03 13:12:28;;;;;;;34.20;5.75;;;7.50;99.90;;;;;;5018730;28;20029;-59